createdAt,value
2022-12-04T00:01:27.924Z,99914.16
2022-12-04T00:04:00.204Z,99918.13
2022-12-04T00:06:28.732Z,99910.44
2022-12-04T00:08:56.324Z,99913.53
2022-12-04T00:11:29.426Z,99901.31
2022-12-04T00:14:03.010Z,99904.72
2022-12-04T00:16:33.633Z,99901.13
2022-12-04T00:19:00.808Z,99887.16
2022-12-04T00:21:28.101Z,99883.97
2022-12-04T00:23:55.339Z,99880.56
2022-12-04T00:26:27.390Z,99891.16
2022-12-04T00:28:55.503Z,99885.19
2022-12-04T00:31:28.188Z,99877.41
2022-12-04T00:33:56.021Z,99883.47
2022-12-04T00:36:27.741Z,99870.41
2022-12-04T00:38:55.594Z,99857.31
2022-12-04T00:41:27.160Z,99858.34
2022-12-04T00:43:54.793Z,99853.06
2022-12-04T00:46:23.241Z,99855.75
2022-12-04T00:48:51.798Z,99863.44
2022-12-04T00:51:24.144Z,99858.25
2022-12-04T00:53:52.873Z,99847.84
2022-12-04T00:56:25.957Z,99851.47
2022-12-04T00:58:57.499Z,99847.84
2022-12-04T01:01:26.907Z,99852.56
2022-12-04T01:03:56.264Z,99844.00
2022-12-04T01:06:29.674Z,99843.09
2022-12-04T01:08:58.944Z,99842.28
2022-12-04T01:11:28.826Z,99829.31
2022-12-04T01:13:57.942Z,99823.13
2022-12-04T01:16:43.537Z,99820.34
2022-12-04T01:19:12.511Z,99821.63
2022-12-04T01:21:40.550Z,99811.25
2022-12-04T01:24:08.812Z,99804.97
2022-12-04T01:26:36.202Z,99797.97
2022-12-04T01:29:04.112Z,99810.16
2022-12-04T01:31:31.640Z,99809.78
2022-12-04T01:33:59.504Z,99800.88
2022-12-04T01:36:28.602Z,99796.38
2022-12-04T01:38:57.113Z,99805.38
2022-12-04T01:41:30.113Z,99817.75
2022-12-04T01:44:24.585Z,99809.28
2022-12-04T01:47:01.235Z,99795.22
2022-12-04T01:49:46.643Z,99790.03
2022-12-04T01:52:24.469Z,99787.44
2022-12-04T01:54:59.807Z,99781.31
2022-12-04T01:57:31.622Z,99787.53
2022-12-04T02:00:08.128Z,99779.03
2022-12-04T02:02:40.616Z,99781.44
2022-12-04T02:05:15.295Z,99771.03
2022-12-04T02:07:45.183Z,99770.03
2022-12-04T02:10:13.878Z,99771.75
2022-12-04T02:12:56.115Z,99762.97
2022-12-04T02:15:43.492Z,99765.66
2022-12-04T02:18:41.253Z,99772.63
2022-12-04T02:21:20.354Z,99760.47
2022-12-04T02:24:33.571Z,99758.69
2022-12-04T02:27:18.068Z,99755.28
2022-12-04T02:29:54.524Z,99755.28
2022-12-04T02:33:08.308Z,99746.69
2022-12-04T02:36:13.166Z,99745.09
2022-12-04T02:38:53.719Z,99740.63
2022-12-04T02:41:35.928Z,99750.09
2022-12-04T02:44:49.196Z,99746.69
2022-12-04T02:47:24.264Z,99746.69
2022-12-04T02:50:00.685Z,99743.31
2022-12-04T02:52:41.963Z,99739.00
2022-12-04T02:55:24.129Z,99739.91
2022-12-04T02:58:09.854Z,99739.19
2022-12-04T03:00:38.393Z,99731.31
2022-12-04T03:03:24.581Z,99746.97
2022-12-04T03:06:07.081Z,99736.69
2022-12-04T03:08:51.800Z,99736.91
2022-12-04T03:11:19.047Z,99732.81
2022-12-04T03:14:02.131Z,99721.94
2022-12-04T03:16:40.141Z,99721.03
2022-12-04T03:19:29.893Z,99722.75
2022-12-04T03:22:03.674Z,99722.66
2022-12-04T03:24:54.263Z,99707.75
2022-12-04T03:27:54.747Z,99699.97
2022-12-04T03:30:23.807Z,99693.81
2022-12-04T03:33:19.572Z,99699.09
2022-12-04T03:36:08.389Z,99708.75
2022-12-04T03:38:58.323Z,99695.69
2022-12-04T03:41:55.900Z,99687.81
2022-12-04T03:44:40.063Z,99687.81
2022-12-04T03:47:58.905Z,99673.81
2022-12-04T03:51:27.605Z,99680.81
2022-12-04T03:54:11.805Z,99674.72
2022-12-04T03:56:55.209Z,99677.22
2022-12-04T03:59:44.046Z,99669.53
2022-12-04T04:02:18.332Z,99673.03
2022-12-04T04:04:54.464Z,99673.03
2022-12-04T04:07:35.633Z,99664.34
2022-12-04T04:10:16.453Z,99659.25
2022-12-04T04:13:21.153Z,99656.66
2022-12-04T04:16:14.412Z,99662.66
2022-12-04T04:19:01.826Z,99656.66
2022-12-04T04:21:54.652Z,99659.34
2022-12-04T04:24:48.906Z,99661.03
2022-12-04T04:27:16.164Z,99652.47
2022-12-04T04:29:51.894Z,99644.69
2022-12-04T04:33:12.998Z,99631.72
2022-12-04T04:36:01.925Z,99630.81
2022-12-04T04:38:55.003Z,99636.09
2022-12-04T04:41:41.572Z,99632.69
2022-12-04T04:44:30.653Z,99632.69
2022-12-04T04:47:06.848Z,99636.41
2022-12-04T04:49:37.018Z,99624.13
2022-12-04T04:52:04.588Z,99629.31
2022-12-04T04:54:33.925Z,99632.88
2022-12-04T04:57:01.065Z,99645.09
2022-12-04T04:59:28.268Z,99654.84
2022-12-04T05:01:56.809Z,99650.63
2022-12-04T05:04:24.069Z,99643.66
2022-12-04T05:06:51.330Z,99652.47
2022-12-04T05:09:18.562Z,99650.63
2022-12-04T05:11:45.733Z,99649.25
2022-12-04T05:14:12.869Z,99634.47
2022-12-04T05:16:41.596Z,99614.50
2022-12-04T05:19:27.762Z,99613.44
2022-12-04T05:21:54.795Z,99621.13
2022-12-04T05:24:22.030Z,99615.94
2022-12-04T05:26:49.205Z,99615.03
2022-12-04T05:29:16.344Z,99622.81
2022-12-04T05:31:43.548Z,99622.81
2022-12-04T05:34:10.732Z,99611.44
2022-12-04T05:36:37.895Z,99608.66
2022-12-04T05:39:05.109Z,99607.66
2022-12-04T05:41:32.351Z,99602.38
2022-12-04T05:43:59.693Z,99599.78
2022-12-04T05:46:26.962Z,99597.78
2022-12-04T05:48:54.143Z,99600.28
2022-12-04T05:51:21.321Z,99588.09
2022-12-04T05:53:51.484Z,99588.19
2022-12-04T05:56:18.713Z,99597.69
2022-12-04T05:58:45.819Z,99598.38
2022-12-04T06:01:21.760Z,99605.38
2022-12-04T06:03:49.436Z,99613.94
2022-12-04T06:06:24.761Z,99644.31
2022-12-04T06:08:57.753Z,99660.25
2022-12-04T06:11:35.066Z,99653.44
2022-12-04T06:14:06.322Z,99655.06
2022-12-04T06:16:43.036Z,99651.47
2022-12-04T06:19:16.292Z,99659.56
2022-12-04T06:21:48.431Z,99654.56
2022-12-04T06:24:24.676Z,99649.69
2022-12-04T06:27:26.165Z,99644.41
2022-12-04T06:29:45.740Z,99640.69
2022-12-04T06:32:17.797Z,99634.50
2022-12-04T06:34:54.180Z,99633.81
2022-12-04T06:37:24.392Z,99628.53
2022-12-04T06:39:51.607Z,99633.63
2022-12-04T06:42:18.815Z,99636.22
2022-12-04T06:44:46.182Z,99642.47
2022-12-04T06:47:13.433Z,99652.88
2022-12-04T06:49:40.826Z,99664.75
2022-12-04T06:52:08.128Z,99664.03
2022-12-04T06:54:35.359Z,99666.63
2022-12-04T06:57:02.593Z,99666.63
2022-12-04T06:59:30.019Z,99653.66
2022-12-04T07:01:57.244Z,99650.09
2022-12-04T07:04:24.704Z,99647.59
2022-12-04T07:06:51.931Z,99645.78
2022-12-04T07:09:19.187Z,99652.06
2022-12-04T07:11:46.899Z,99651.25
2022-12-04T07:14:14.936Z,99652.06
2022-12-04T07:16:42.984Z,99645.09
2022-12-04T07:19:13.655Z,99641.38
2022-12-04T07:21:41.954Z,99650.09
2022-12-04T07:24:15.713Z,99655.47
2022-12-04T07:26:43.070Z,99653.06
2022-12-04T07:29:10.730Z,99653.84
2022-12-04T07:31:38.860Z,99655.66
2022-12-04T07:34:06.242Z,99649.38
2022-12-04T07:36:33.460Z,99647.69
2022-12-04T07:39:00.712Z,99652.88
2022-12-04T07:41:27.980Z,99657.06
2022-12-04T07:43:55.325Z,99646.69
2022-12-04T07:46:27.657Z,99654.75
2022-12-04T07:48:57.018Z,99653.94
2022-12-04T07:51:28.282Z,99650.38
2022-12-04T07:54:03.126Z,99650.38
2022-12-04T07:56:32.372Z,99653.84
2022-12-04T07:59:00.272Z,99652.06
2022-12-04T08:01:27.917Z,99655.66
2022-12-04T08:03:58.955Z,99654.75
2022-12-04T08:06:29.577Z,99662.84
2022-12-04T08:08:57.395Z,99657.84
2022-12-04T08:11:28.104Z,99670.31
2022-12-04T08:14:06.136Z,99661.81
2022-12-04T08:16:33.722Z,99666.13
2022-12-04T08:19:01.616Z,99665.94
2022-12-04T08:21:31.246Z,99672.91
2022-12-04T08:24:00.382Z,99676.41
2022-12-04T08:26:30.502Z,99684.88
2022-12-04T08:28:58.585Z,99686.19
2022-12-04T08:31:30.914Z,99687.28
2022-12-04T08:34:02.657Z,99688.97
2022-12-04T08:36:30.478Z,99687.69
2022-12-04T08:38:57.691Z,99688.69
2022-12-04T08:41:26.712Z,99698.56
2022-12-04T08:43:56.327Z,99696.97
2022-12-04T08:46:25.858Z,99699.66
2022-12-04T08:48:55.201Z,99701.53
2022-12-04T08:51:27.910Z,99711.63
2022-12-04T08:54:03.429Z,99710.03
2022-12-04T08:56:32.325Z,99715.44
2022-12-04T08:59:00.922Z,99717.31
2022-12-04T09:01:30.303Z,99721.34
2022-12-04T09:03:58.102Z,99721.34
2022-12-04T09:06:25.889Z,99726.13
2022-12-04T09:08:55.570Z,99723.41
2022-12-04T09:11:27.952Z,99725.09
2022-12-04T09:13:55.876Z,99734.00
2022-12-04T09:16:26.021Z,99736.69
2022-12-04T09:18:54.705Z,99739.28
2022-12-04T09:21:24.043Z,99749.88
2022-12-04T09:23:51.796Z,99753.69
2022-12-04T09:26:29.846Z,99755.47
2022-12-04T09:29:01.280Z,99753.69
2022-12-04T09:31:29.151Z,99751.47
2022-12-04T09:33:59.666Z,99760.06
2022-12-04T09:36:27.611Z,99755.78
2022-12-04T09:38:55.280Z,99759.25
2022-12-04T09:42:00.347Z,99762.06
2022-12-04T09:44:36.616Z,99763.59
2022-12-04T09:47:23.165Z,99761.84
2022-12-04T09:50:31.260Z,99759.38
2022-12-04T09:53:09.042Z,99765.47
2022-12-04T09:56:12.478Z,99765.06
2022-12-04T09:59:06.072Z,99774.06
2022-12-04T10:02:24.140Z,99772.34
2022-12-04T10:04:51.416Z,99774.28
2022-12-04T10:08:02.507Z,99774.84
2022-12-04T10:11:04.693Z,99780.75
2022-12-04T10:14:14.667Z,99780.44
2022-12-04T10:17:57.997Z,99782.13
2022-12-04T10:21:00.542Z,99784.84
2022-12-04T10:23:50.886Z,99789.44
2022-12-04T10:26:23.818Z,99788.25
2022-12-04T10:29:02.969Z,99785.25
2022-12-04T10:31:32.722Z,99782.13
2022-12-04T10:34:16.705Z,99779.75
2022-12-04T10:36:53.682Z,99784.47
2022-12-04T10:39:28.314Z,99791.44
2022-12-04T10:42:37.824Z,99784.84
2022-12-04T10:45:07.105Z,99781.97
2022-12-04T10:47:35.448Z,99780.84
2022-12-04T10:50:20.853Z,99785.13
2022-12-04T10:52:48.343Z,99780.84
2022-12-04T10:55:16.244Z,99772.88
2022-12-04T10:57:46.792Z,99782.03
2022-12-04T11:00:36.057Z,99777.03
2022-12-04T11:03:23.108Z,99776.44
2022-12-04T11:06:06.893Z,99780.44
2022-12-04T11:08:44.724Z,99773.66
2022-12-04T11:11:15.711Z,99779.47
2022-12-04T11:13:43.196Z,99780.53
2022-12-04T11:16:46.119Z,99782.25
2022-12-04T11:19:33.694Z,99777.47
2022-12-04T11:22:16.662Z,99771.44
2022-12-04T11:24:55.579Z,99777.22
2022-12-04T11:27:32.348Z,99782.03
2022-12-04T11:30:13.479Z,99784.63
2022-12-04T11:32:42.035Z,99777.22
2022-12-04T11:35:28.724Z,99785.63
2022-12-04T11:38:15.580Z,99782.53
2022-12-04T11:42:27.904Z,99789.13
2022-12-04T11:45:02.505Z,99792.41
2022-12-04T11:47:33.013Z,99786.75
2022-12-04T11:50:48.097Z,99796.63
2022-12-04T11:53:42.368Z,99790.31
2022-12-04T11:56:42.993Z,99794.41
2022-12-04T11:59:49.520Z,99799.22
2022-12-04T12:03:09.107Z,99804.44
2022-12-04T12:06:07.365Z,99792.25
2022-12-04T12:09:03.690Z,99805.25
2022-12-04T12:11:52.412Z,99809.63
2022-12-04T12:15:12.423Z,99812.00
2022-12-04T12:17:59.928Z,99821.63
2022-12-04T12:21:06.174Z,99823.59
2022-12-04T12:24:15.893Z,99825.47
2022-12-04T12:27:33.578Z,99820.09
2022-12-04T12:30:21.769Z,99823.59
2022-12-04T12:32:58.508Z,99815.28
2022-12-04T12:35:55.610Z,99812.97
2022-12-04T12:38:32.507Z,99807.13
2022-12-04T12:41:17.495Z,99811.88
2022-12-04T12:44:19.396Z,99800.09
2022-12-04T12:46:56.820Z,99811.91
2022-12-04T12:50:14.947Z,99816.78
2022-12-04T12:53:02.105Z,99818.09
2022-12-04T12:55:43.072Z,99821.75
2022-12-04T12:58:53.588Z,99824.03
2022-12-04T13:01:44.029Z,99831.59
2022-12-04T13:04:40.355Z,99834.13
2022-12-04T13:07:47.625Z,99833.34
2022-12-04T13:10:41.678Z,99840.28
2022-12-04T13:13:22.445Z,99841.22
2022-12-04T13:16:15.009Z,99844.88
2022-12-04T13:19:07.839Z,99840.84
2022-12-04T13:22:17.623Z,99838.38
2022-12-04T13:25:08.864Z,99842.66
2022-12-04T13:28:00.239Z,99837.47
2022-12-04T13:31:45.371Z,99838.44
2022-12-04T13:34:52.964Z,99833.03
2022-12-04T13:38:31.828Z,99839.41
2022-12-04T13:41:07.312Z,99832.88
2022-12-04T13:43:48.529Z,99823.75
2022-12-04T13:46:39.593Z,99837.84
2022-12-04T13:49:19.003Z,99839.66
2022-12-04T13:51:50.728Z,99843.59
2022-12-04T13:54:17.703Z,99840.75
2022-12-04T13:56:57.212Z,99855.28
2022-12-04T13:59:28.115Z,99857.63
2022-12-04T14:02:06.444Z,99860.22
2022-12-04T14:04:53.156Z,99850.91
2022-12-04T14:07:34.273Z,99854.59
2022-12-04T14:10:25.373Z,99848.94
2022-12-04T14:13:20.192Z,99857.16
2022-12-04T14:15:48.073Z,99854.28
2022-12-04T14:18:28.379Z,99856.78
2022-12-04T14:21:04.906Z,99872.47
2022-12-04T14:23:42.478Z,99874.25
2022-12-04T14:27:10.038Z,99876.66
2022-12-04T14:29:27.973Z,99880.25
2022-12-04T14:32:00.732Z,99881.66
2022-12-04T14:34:33.901Z,99881.38
2022-12-04T14:37:05.054Z,99888.47
2022-12-04T14:39:45.744Z,99893.47
2022-12-04T14:42:38.738Z,99889.91
2022-12-04T14:45:24.622Z,99895.09
2022-12-04T14:48:34.013Z,99899.50
2022-12-04T14:51:38.231Z,99903.97
2022-12-04T14:54:35.620Z,99911.69
2022-12-04T14:57:49.631Z,99920.41
2022-12-04T15:00:24.203Z,99923.09
2022-12-04T15:02:59.148Z,99928.31
2022-12-04T15:05:30.744Z,99921.50
2022-12-04T15:08:03.031Z,99928.31
2022-12-04T15:10:53.602Z,99931.72
2022-12-04T15:13:33.214Z,99940.31
2022-12-04T15:16:13.296Z,99943.72
2022-12-04T15:18:40.517Z,99951.34
2022-12-04T15:21:10.494Z,99953.03
2022-12-04T15:23:41.573Z,99958.03
2022-12-04T15:26:17.655Z,99952.63
2022-12-04T15:29:01.614Z,99944.53
2022-12-04T15:31:37.726Z,99947.75
2022-12-04T15:34:15.639Z,99952.97
2022-12-04T15:37:06.211Z,99955.47
2022-12-04T15:39:35.688Z,99967.66
2022-12-04T15:42:24.538Z,99970.66
2022-12-04T15:45:07.904Z,99975.97
2022-12-04T15:47:42.096Z,99982.75
2022-12-04T15:50:21.747Z,99985.38
2022-12-04T15:53:06.301Z,99985.38
2022-12-04T15:55:48.623Z,99979.75
2022-12-04T15:59:00.206Z,99976.97
2022-12-04T16:01:38.339Z,99969.97
2022-12-04T16:04:05.670Z,99975.06
2022-12-04T16:06:34.984Z,99979.38
2022-12-04T16:09:17.404Z,99988.06
2022-12-04T16:11:44.860Z,99986.38
2022-12-04T16:14:11.873Z,99980.38
2022-12-04T16:16:46.169Z,99977.47
2022-12-04T16:19:33.150Z,99975.88
2022-12-04T16:22:23.410Z,99989.56
2022-12-04T16:24:51.365Z,99995.56
2022-12-04T16:27:23.963Z,100007.28
2022-12-04T16:29:52.882Z,100022.28
2022-12-04T16:32:27.528Z,100028.41
2022-12-04T16:34:55.398Z,100027.47
2022-12-04T16:37:24.032Z,100024.06
2022-12-04T16:39:51.345Z,100017.78
2022-12-04T16:42:28.827Z,100003.47
2022-12-04T16:44:56.598Z,100009.59
2022-12-04T16:47:24.099Z,99987.56
2022-12-04T16:49:53.260Z,99988.28
2022-12-04T16:52:21.147Z,99997.97
2022-12-04T16:54:48.484Z,100012.66
2022-12-04T16:57:15.723Z,100015.06
2022-12-04T16:59:42.968Z,100016.97
2022-12-04T17:02:26.332Z,100010.88
2022-12-04T17:04:57.551Z,100017.84
2022-12-04T17:07:25.566Z,100016.97
2022-12-04T17:09:52.797Z,100015.34
2022-12-04T17:12:20.040Z,100023.75
2022-12-04T17:14:47.273Z,100016.06
2022-12-04T17:17:14.525Z,100024.56
2022-12-04T17:19:41.652Z,100023.75
2022-12-04T17:22:08.925Z,100024.69
2022-12-04T17:24:37.849Z,100025.56
2022-12-04T17:27:07.857Z,100017.75
2022-12-04T17:29:35.223Z,100016.97
2022-12-04T17:32:02.376Z,100024.97
2022-12-04T17:34:29.480Z,100023.38
2022-12-04T17:36:56.874Z,100027.78
2022-12-04T17:39:24.127Z,100030.38
2022-12-04T17:41:51.372Z,100023.97
2022-12-04T17:44:18.604Z,100022.19
2022-12-04T17:46:45.882Z,100017.75
2022-12-04T17:49:13.115Z,100008.28
2022-12-04T17:51:40.391Z,100018.78
2022-12-04T17:54:08.232Z,100022.19
2022-12-04T17:56:35.500Z,100028.34
2022-12-04T17:59:04.612Z,100035.28
2022-12-04T18:01:32.337Z,100029.88
2022-12-04T18:04:04.865Z,100023.97
2022-12-04T18:06:42.202Z,100025.34
2022-12-04T18:09:14.769Z,100044.56
2022-12-04T18:11:47.171Z,100055.16
2022-12-04T18:14:22.084Z,100065.66
2022-12-04T18:16:53.254Z,100071.19
2022-12-04T18:19:23.949Z,100082.19
2022-12-04T18:21:51.955Z,100085.19
2022-12-04T18:24:19.816Z,100092.38
2022-12-04T18:26:51.310Z,100100.41
2022-12-04T18:29:27.040Z,100094.19
2022-12-04T18:31:54.622Z,100095.78
2022-12-04T18:34:23.205Z,100094.88
2022-12-04T18:36:50.770Z,100095.59
2022-12-04T18:39:25.039Z,100096.97
2022-12-04T18:41:56.393Z,100101.06
2022-12-04T18:44:25.054Z,100108.94
2022-12-04T18:46:53.440Z,100107.16
2022-12-04T18:49:20.832Z,100115.97
2022-12-04T18:51:50.284Z,100122.97
2022-12-04T18:54:23.003Z,100126.59
2022-12-04T18:56:53.054Z,100124.97
2022-12-04T18:59:26.793Z,100134.59
2022-12-04T19:01:55.293Z,100135.56
2022-12-04T19:04:25.069Z,100129.59
2022-12-04T19:06:56.713Z,100123.59
2022-12-04T19:09:54.315Z,100128.59
2022-12-04T19:12:16.064Z,100126.78
2022-12-04T19:14:43.356Z,100127.56
2022-12-04T19:17:11.317Z,100125.69
2022-12-04T19:19:38.469Z,100134.59
2022-12-04T19:22:05.763Z,100150.09
2022-12-04T19:24:32.993Z,100158.00
2022-12-04T19:27:01.757Z,100165.91
2022-12-04T19:29:29.049Z,100171.97
2022-12-04T19:31:59.241Z,100172.78
2022-12-04T19:34:27.403Z,100162.38
2022-12-04T19:36:55.225Z,100171.78
2022-12-04T19:39:22.663Z,100174.97
2022-12-04T19:41:49.984Z,100185.16
2022-12-04T19:44:47.340Z,100179.16
2022-12-04T19:47:04.710Z,100181.19
2022-12-04T19:49:31.916Z,100176.75
2022-12-04T19:51:59.063Z,100179.38
2022-12-04T19:54:27.246Z,100177.56
2022-12-04T19:56:54.558Z,100172.16
2022-12-04T19:59:21.792Z,100170.94
2022-12-04T20:01:49.131Z,100179.44
2022-12-04T20:04:16.413Z,100174.13
2022-12-04T20:06:46.403Z,100160.53
2022-12-04T20:09:20.536Z,100162.34
2022-12-04T20:11:48.376Z,100169.25
2022-12-04T20:14:15.862Z,100177.97
2022-12-04T20:16:43.443Z,100174.44
2022-12-04T20:19:16.688Z,100168.00
2022-12-04T20:21:45.987Z,100174.00
2022-12-04T20:24:17.114Z,100169.63
2022-12-04T20:26:46.631Z,100168.94
2022-12-04T20:29:18.525Z,100169.94
2022-12-04T20:31:47.335Z,100155.34
2022-12-04T20:34:18.557Z,100169.25
2022-12-04T20:36:48.527Z,100164.16
2022-12-04T20:39:18.026Z,100169.56
2022-12-04T20:41:45.303Z,100177.34
2022-12-04T20:44:18.943Z,100177.34
2022-12-04T20:46:47.286Z,100183.56
2022-12-04T20:49:22.001Z,100183.56
2022-12-04T20:51:51.825Z,100192.25
2022-12-04T20:54:23.045Z,100197.56
2022-12-04T20:56:52.868Z,100195.97
2022-12-04T20:59:23.206Z,100189.75
2022-12-04T21:01:52.036Z,100194.19
2022-12-04T21:04:20.441Z,100192.25
2022-12-04T21:06:48.193Z,100198.47
2022-12-04T21:09:23.330Z,100196.91
2022-12-04T21:11:54.616Z,100196.78
2022-12-04T21:14:49.214Z,100193.59
2022-12-04T21:17:19.325Z,100197.97
2022-12-04T21:19:50.198Z,100198.91
2022-12-04T21:22:19.211Z,100200.69
2022-12-04T21:24:47.097Z,100193.00
2022-12-04T21:27:20.507Z,100193.81
2022-12-04T21:29:49.275Z,100199.00
2022-12-04T21:32:19.386Z,100201.59
2022-12-04T21:34:46.632Z,100200.91
2022-12-04T21:37:14.245Z,100198.41
2022-12-04T21:39:42.727Z,100197.63
2022-12-04T21:42:36.382Z,100202.84
2022-12-04T21:45:07.617Z,100212.63
2022-12-04T21:47:36.106Z,100212.63
2022-12-04T21:50:05.731Z,100209.03
2022-12-04T21:52:32.891Z,100217.84
2022-12-04T21:55:00.060Z,100226.66
2022-12-04T21:57:28.271Z,100213.56
2022-12-04T21:59:55.619Z,100214.44
2022-12-04T22:02:23.413Z,100220.56
2022-12-04T22:04:50.687Z,100220.56
2022-12-04T22:07:17.856Z,100216.25
2022-12-04T22:09:45.255Z,100220.56
2022-12-04T22:12:41.029Z,100218.75
2022-12-04T22:15:00.242Z,100230.03
2022-12-04T22:17:30.022Z,100231.88
2022-12-04T22:19:57.527Z,100233.44
2022-12-04T22:22:25.005Z,100234.47
2022-12-04T22:24:52.122Z,100239.66
2022-12-04T22:27:19.306Z,100241.47
2022-12-04T22:30:02.390Z,100234.47
2022-12-04T22:32:31.716Z,100233.34
2022-12-04T22:34:58.908Z,100223.84
2022-12-04T22:37:26.122Z,100217.84
2022-12-04T22:39:53.279Z,100220.56
2022-12-04T22:42:20.450Z,100230.03
2022-12-04T22:44:47.836Z,100234.47
2022-12-04T22:47:15.134Z,100218.75
2022-12-04T22:49:42.477Z,100221.47
2022-12-04T22:52:09.771Z,100218.84
2022-12-04T22:54:36.968Z,100221.47
2022-12-04T22:57:04.348Z,100213.75
2022-12-04T22:59:31.559Z,100215.44
2022-12-04T23:02:00.202Z,100206.72
2022-12-04T23:04:28.327Z,100211.06
2022-12-04T23:06:55.553Z,100211.84
2022-12-04T23:09:22.905Z,100210.16
2022-12-04T23:11:55.348Z,100205.84
2022-12-04T23:14:24.408Z,100201.44
2022-12-04T23:16:51.602Z,100196.22
2022-12-04T23:19:20.287Z,100207.66
2022-12-04T23:21:55.056Z,100201.44
2022-12-04T23:24:25.170Z,100197.03
2022-12-04T23:26:52.359Z,100201.53
2022-12-04T23:29:44.983Z,100202.44
2022-12-04T23:32:06.749Z,100199.03
2022-12-04T23:34:33.995Z,100202.56
2022-12-04T23:37:01.199Z,100192.03
2022-12-04T23:39:28.747Z,100199.03
2022-12-04T23:41:55.867Z,100192.25
2022-12-04T23:44:23.095Z,100196.66
2022-12-04T23:46:50.408Z,100199.34
2022-12-04T23:49:17.570Z,100184.56
2022-12-04T23:51:44.823Z,100201.06
2022-12-04T23:54:12.124Z,100199.25
2022-12-04T23:56:39.344Z,100204.44
2022-12-04T23:59:06.535Z,100204.44
